Terminal Aerodrome Forecast
Issued by NWS

Home | Current Version | Previous Version | Text Only | Print | Product List | Glossary On
Versions: 1 2 3 4 5 6 7 8 9 10 11 12 13 14
273
FTUS45 KRIW 301724
TAFWRL
TAF
KWRL 301724Z 3018/0118 15006KT P6SM SCT100
     FM302100 VRB05KT P6SM SCT100 BKN200
     FM010900 32012KT P6SM VCSH BKN040
     FM011300 34009KT P6SM BKN070=

USA.gov is the U.S. government's official web portal to all federal, state and local government web resources and services.